createdAt,value
2023-03-06T00:27:23.291Z,318
2023-03-06T00:57:20.261Z,310
2023-03-06T01:27:20.548Z,309
2023-03-06T01:57:17.637Z,302
2023-03-06T02:27:17.151Z,291
2023-03-06T02:57:13.825Z,292
2023-03-06T03:27:17.411Z,291
2023-03-06T03:57:12.034Z,290
2023-03-06T04:27:11.216Z,291
2023-03-06T04:57:07.672Z,292
2023-03-06T05:27:09.663Z,280
2023-03-06T05:57:07.304Z,280
2023-03-06T06:27:08.449Z,278
2023-03-06T06:57:07.235Z,274
2023-03-06T07:27:03.111Z,275
2023-03-06T07:56:58.567Z,271
2023-03-06T08:27:00.413Z,267
2023-03-06T08:56:58.773Z,270
2023-03-06T09:27:00.919Z,271
2023-03-06T09:57:00.210Z,269
2023-03-06T10:27:01.734Z,270
2023-03-06T10:56:58.976Z,256
2023-03-06T11:28:05.535Z,252
2023-03-06T11:57:57.251Z,250
2023-03-06T12:37:50.454Z,246
2023-03-06T13:37:36.125Z,240
2023-03-06T14:08:42.514Z,236
2023-03-06T14:38:37.479Z,230
2023-03-06T15:08:32.251Z,230
2023-03-06T15:38:33.047Z,232
2023-03-06T16:08:33.281Z,231
2023-03-06T16:38:31.437Z,228
2023-03-06T17:08:29.172Z,224
2023-03-06T17:38:26.827Z,224
2023-03-06T18:08:21.194Z,221
2023-03-06T18:39:32.235Z,220
2023-03-06T19:09:25.846Z,219
2023-03-06T19:39:22.476Z,212
2023-03-06T20:09:23.108Z,214
2023-03-06T20:39:24.035Z,214
2023-03-06T21:09:23.640Z,206
2023-03-06T21:39:25.661Z,206
2023-03-06T22:09:26.932Z,204
2023-03-06T22:39:22.669Z,202
2023-03-06T23:09:25.149Z,201
2023-03-06T23:39:25.531Z,201
